createdAt,value
2022-11-24T00:03:14.868Z,225
2022-11-24T00:08:34.133Z,225
2022-11-24T00:19:21.496Z,270
2022-11-24T00:24:31.364Z,225
2022-11-24T00:35:08.401Z,225
2022-11-24T00:40:30.840Z,270
2022-11-24T00:45:47.144Z,270
2022-11-24T00:51:06.356Z,225
2022-11-24T01:01:45.209Z,225
2022-11-24T01:12:23.779Z,270
2022-11-24T01:17:43.325Z,225
2022-11-24T01:23:03.041Z,270
2022-11-24T01:28:22.777Z,225
2022-11-24T01:39:00.448Z,225
2022-11-24T01:44:19.297Z,270
2022-11-24T01:54:57.070Z,270
2022-11-24T02:00:16.049Z,225
2022-11-24T02:05:35.041Z,270
2022-11-24T02:10:54.646Z,225
2022-11-24T02:21:32.824Z,270
2022-11-24T02:26:52.974Z,225
2022-11-24T02:37:30.031Z,225
2022-11-24T02:42:49.090Z,225
2022-11-24T02:48:08.718Z,225
2022-11-24T02:53:28.381Z,225
2022-11-24T02:58:48.168Z,270
2022-11-24T03:04:06.985Z,225
2022-11-24T03:09:26.629Z,270
2022-11-24T03:16:00.845Z,225
2022-11-24T03:20:05.044Z,225
2022-11-24T03:25:22.665Z,225
2022-11-24T03:30:42.059Z,225
2022-11-24T03:36:01.103Z,270
2022-11-24T03:41:20.600Z,225
2022-11-24T03:46:39.522Z,225
2022-11-24T03:52:00.640Z,270
2022-11-24T04:02:36.183Z,270
2022-11-24T04:07:55.036Z,270
2022-11-24T04:18:32.884Z,225
2022-11-24T04:23:52.472Z,225
2022-11-24T04:29:12.117Z,270
2022-11-24T04:34:31.424Z,270
2022-11-24T04:45:10.193Z,225
2022-11-24T04:50:29.125Z,270
2022-11-24T04:55:47.512Z,270
2022-11-24T05:01:07.179Z,270
2022-11-24T05:06:26.645Z,180
2022-11-24T05:11:46.284Z,225
2022-11-24T05:17:05.511Z,225
2022-11-24T05:27:43.997Z,225
2022-11-24T05:33:03.367Z,225
2022-11-24T05:43:41.768Z,180
2022-11-24T05:49:01.256Z,135
2022-11-24T05:54:20.491Z,270
2022-11-24T05:59:39.830Z,225
2022-11-24T06:04:59.342Z,225
2022-11-24T06:10:18.932Z,225
2022-11-24T06:15:38.310Z,225
2022-11-24T06:26:16.646Z,225
2022-11-24T06:31:34.802Z,225
2022-11-24T06:36:53.566Z,225
2022-11-24T06:42:12.505Z,225
2022-11-24T06:52:51.990Z,225
2022-11-24T06:58:11.016Z,225
2022-11-24T07:08:49.382Z,225
2022-11-24T07:24:48.123Z,180
2022-11-24T07:30:07.194Z,225
2022-11-24T07:35:25.905Z,270
2022-11-24T07:48:15.518Z,180
2022-11-24T07:51:22.056Z,225
2022-11-24T08:02:01.840Z,180
2022-11-24T08:07:21.438Z,135
2022-11-24T08:13:55.524Z,225
2022-11-24T08:31:53.056Z,180
2022-11-24T08:33:58.368Z,225
2022-11-24T08:44:37.724Z,225
2022-11-24T08:49:57.270Z,225
2022-11-24T09:00:35.670Z,225
2022-11-24T09:05:54.528Z,225
2022-11-24T09:14:27.550Z,225
2022-11-24T09:18:43.032Z,270
2022-11-24T09:28:25.387Z,225
2022-11-24T09:32:40.795Z,225
2022-11-24T09:44:22.300Z,225
2022-11-24T09:48:27.271Z,225
2022-11-24T09:53:46.954Z,225
2022-11-24T09:59:05.664Z,180
2022-11-24T10:09:42.747Z,225
2022-11-24T10:15:02.558Z,225
2022-11-24T10:25:41.542Z,225
2022-11-24T10:31:00.837Z,225
2022-11-24T10:36:19.931Z,225
2022-11-24T10:41:38.654Z,270
2022-11-24T10:52:18.047Z,225
2022-11-24T10:57:36.988Z,225
2022-11-24T11:08:15.414Z,270
2022-11-24T11:13:34.486Z,225
2022-11-24T11:18:52.632Z,225
2022-11-24T11:24:12.061Z,225
2022-11-24T11:34:50.962Z,225
2022-11-24T11:40:10.328Z,225
2022-11-24T11:51:15.333Z,180
2022-11-24T11:56:08.230Z,270
2022-11-24T12:06:46.949Z,180
2022-11-24T12:12:06.358Z,225
2022-11-24T12:17:25.157Z,225
2022-11-24T12:22:44.109Z,270
2022-11-24T12:33:22.740Z,270
2022-11-24T12:38:41.466Z,270
2022-11-24T12:49:20.583Z,225
2022-11-24T12:54:40.247Z,270
2022-11-24T12:59:58.596Z,225
2022-11-24T13:05:17.926Z,270
2022-11-24T13:10:55.151Z,225
2022-11-24T13:16:20.505Z,225
2022-11-24T13:21:24.662Z,225
2022-11-24T13:31:54.093Z,225
2022-11-24T13:37:27.038Z,225
2022-11-24T13:48:18.906Z,180
2022-11-24T13:53:38.138Z,270
2022-11-24T14:04:31.721Z,270
2022-11-24T14:09:35.468Z,225
2022-11-24T14:14:55.196Z,270
2022-11-24T14:20:14.503Z,225
2022-11-24T14:26:48.694Z,225
2022-11-24T14:30:52.751Z,225
2022-11-24T14:41:32.768Z,270
2022-11-24T14:46:51.793Z,225
2022-11-24T14:57:29.964Z,180
2022-11-24T15:02:49.242Z,225
2022-11-24T15:08:08.833Z,180
2022-11-24T15:13:27.273Z,225
2022-11-24T15:24:05.450Z,180
2022-11-24T15:29:24.699Z,270
2022-11-24T15:40:03.499Z,270
2022-11-24T15:45:23.182Z,225
2022-11-24T15:50:42.603Z,225
2022-11-24T15:56:01.581Z,270
2022-11-24T16:01:21.285Z,270
2022-11-24T16:06:49.631Z,225
2022-11-24T16:11:59.750Z,270
2022-11-24T16:22:38.242Z,270
2022-11-24T16:27:57.452Z,270
2022-11-24T16:33:16.473Z,270
2022-11-24T16:38:35.329Z,315
2022-11-24T16:43:54.289Z,315
2022-11-24T16:49:14.510Z,270
2022-11-24T16:54:33.145Z,270
2022-11-24T17:05:11.713Z,270
2022-11-24T17:10:30.681Z,270
2022-11-24T17:15:54.059Z,225
2022-11-24T17:21:09.888Z,270
2022-11-24T17:26:28.074Z,270
2022-11-24T17:31:47.119Z,270
2022-11-24T17:37:06.059Z,180
2022-11-24T17:47:44.455Z,0
2022-11-24T17:53:03.573Z,315
2022-11-24T18:03:41.967Z,270
2022-11-24T18:09:01.224Z,225
2022-11-24T18:14:20.388Z,315
2022-11-24T18:19:39.515Z,315
2022-11-24T18:30:18.084Z,0
2022-11-24T18:35:38.034Z,45
2022-11-24T18:46:16.573Z,135
2022-11-24T18:51:35.493Z,45
2022-11-24T18:56:57.734Z,90
2022-11-24T19:02:14.504Z,45
2022-11-24T19:14:07.741Z,0
2022-11-24T19:18:13.650Z,315
2022-11-24T19:28:52.422Z,90
2022-11-24T19:34:12.098Z,45
2022-11-24T19:39:31.808Z,45
2022-11-24T19:44:54.716Z,45
2022-11-24T19:55:28.259Z,45
2022-11-24T20:00:47.183Z,135
2022-11-24T20:06:06.192Z,90
2022-11-24T20:11:25.646Z,45
2022-11-24T20:16:45.043Z,45
2022-11-24T20:22:04.233Z,90
2022-11-24T20:27:23.641Z,45
2022-11-24T20:38:02.551Z,45
2022-11-24T20:43:21.951Z,180
2022-11-24T20:54:00.143Z,45
2022-11-24T20:59:19.636Z,135
2022-11-24T21:09:57.930Z,135
2022-11-24T21:15:16.771Z,90
2022-11-24T21:20:36.415Z,90
2022-11-24T21:31:15.822Z,90
2022-11-24T21:36:35.654Z,45
2022-11-24T21:41:54.542Z,45
2022-11-24T21:47:14.268Z,90
2022-11-24T21:52:33.932Z,90
2022-11-24T21:57:53.309Z,45
2022-11-24T22:03:22.425Z,90
2022-11-24T22:13:51.870Z,90
2022-11-24T22:19:11.275Z,90
2022-11-24T22:29:53.926Z,45
2022-11-24T22:35:09.990Z,90
2022-11-24T22:40:28.836Z,90
2022-11-24T22:45:47.813Z,45
2022-11-24T22:51:08.253Z,90
2022-11-24T22:56:28.061Z,45
2022-11-24T23:01:47.028Z,135
2022-11-24T23:12:26.029Z,135
2022-11-24T23:17:45.781Z,135
2022-11-24T23:23:04.539Z,90
2022-11-24T23:28:23.416Z,180
2022-11-24T23:39:02.244Z,135
2022-11-24T23:44:29.681Z,90
2022-11-24T23:54:59.842Z,90
